sensor_id;sensor_type;location;lat;lon;timestamp;P1;durP1;ratioP1;P2;durP2;ratioP2
56307;SDS011;42217;50.422;7.210;2024-03-23T00:55:58;12.47;;;7.67;;
56307;SDS011;42217;50.422;7.210;2024-03-23T00:58:24;7.67;;;5.97;;
56307;SDS011;42217;50.422;7.210;2024-03-23T01:00:50;8.00;;;4.43;;
56307;SDS011;42217;50.422;7.210;2024-03-23T01:03:15;17.20;;;5.50;;
56307;SDS011;42217;50.422;7.210;2024-03-23T01:05:41;10.17;;;4.87;;
56307;SDS011;42217;50.422;7.210;2024-03-23T01:08:07;6.77;;;4.90;;
56307;SDS011;42217;50.422;7.210;2024-03-23T01:10:32;11.23;;;5.87;;
56307;SDS011;42217;50.422;7.210;2024-03-23T01:12:58;7.53;;;5.33;;
56307;SDS011;42217;50.422;7.210;2024-03-23T01:15:24;12.37;;;5.17;;
56307;SDS011;42217;50.422;7.210;2024-03-23T01:17:49;10.87;;;5.17;;
56307;SDS011;42217;50.422;7.210;2024-03-23T01:20:15;7.47;;;5.50;;
56307;SDS011;42217;50.422;7.210;2024-03-23T01:22:41;7.53;;;4.57;;
56307;SDS011;42217;50.422;7.210;2024-03-23T01:25:07;9.77;;;6.03;;
56307;SDS011;42217;50.422;7.210;2024-03-23T01:27:33;8.83;;;6.17;;
56307;SDS011;42217;50.422;7.210;2024-03-23T01:29:59;10.70;;;6.17;;
56307;SDS011;42217;50.422;7.210;2024-03-23T01:32:25;9.47;;;6.50;;
56307;SDS011;42217;50.422;7.210;2024-03-23T01:34:50;12.90;;;5.47;;
56307;SDS011;42217;50.422;7.210;2024-03-23T01:37:16;8.70;;;5.77;;
56307;SDS011;42217;50.422;7.210;2024-03-23T01:39:42;9.83;;;6.20;;
56307;SDS011;42217;50.422;7.210;2024-03-23T01:42:07;12.60;;;6.53;;
56307;SDS011;42217;50.422;7.210;2024-03-23T01:44:33;14.90;;;7.17;;
56307;SDS011;42217;50.422;7.210;2024-03-23T01:46:59;14.53;;;6.63;;
56307;SDS011;42217;50.422;7.210;2024-03-23T01:49:24;10.83;;;6.33;;
56307;SDS011;42217;50.422;7.210;2024-03-23T01:51:50;10.30;;;7.33;;
56307;SDS011;42217;50.422;7.210;2024-03-23T01:54:16;13.20;;;8.23;;
56307;SDS011;42217;50.422;7.210;2024-03-23T01:56:42;12.07;;;7.07;;
56307;SDS011;42217;50.422;7.210;2024-03-23T01:59:07;13.97;;;8.00;;
56307;SDS011;42217;50.422;7.210;2024-03-23T02:01:36;13.80;;;7.23;;
56307;SDS011;42217;50.422;7.210;2024-03-23T02:04:02;10.77;;;7.00;;
56307;SDS011;42217;50.422;7.210;2024-03-23T02:06:28;11.10;;;6.93;;
56307;SDS011;42217;50.422;7.210;2024-03-23T02:08:54;10.53;;;6.07;;
56307;SDS011;42217;50.422;7.210;2024-03-23T02:11:20;7.67;;;6.33;;
56307;SDS011;42217;50.422;7.210;2024-03-23T02:13:46;11.37;;;6.90;;
56307;SDS011;42217;50.422;7.210;2024-03-23T02:16:12;12.07;;;6.00;;
56307;SDS011;42217;50.422;7.210;2024-03-23T02:18:38;12.33;;;6.27;;
56307;SDS011;42217;50.422;7.210;2024-03-23T02:21:04;8.67;;;5.87;;
56307;SDS011;42217;50.422;7.210;2024-03-23T02:23:30;9.90;;;6.73;;
56307;SDS011;42217;50.422;7.210;2024-03-23T02:25:56;13.73;;;5.63;;
56307;SDS011;42217;50.422;7.210;2024-03-23T02:28:21;9.50;;;4.07;;
56307;SDS011;42217;50.422;7.210;2024-03-23T02:30:50;4.67;;;3.90;;
56307;SDS011;42217;50.422;7.210;2024-03-23T02:33:17;3.97;;;3.53;;
56307;SDS011;42217;50.422;7.210;2024-03-23T02:35:46;4.40;;;3.80;;
56307;SDS011;42217;50.422;7.210;2024-03-23T02:38:12;5.70;;;3.73;;
56307;SDS011;42217;50.422;7.210;2024-03-23T02:40:38;4.40;;;3.73;;
56307;SDS011;42217;50.422;7.210;2024-03-23T02:43:03;6.97;;;3.33;;
56307;SDS011;42217;50.422;7.210;2024-03-23T02:45:29;7.60;;;3.63;;
56307;SDS011;42217;50.422;7.210;2024-03-23T02:47:55;8.10;;;4.23;;
56307;SDS011;42217;50.422;7.210;2024-03-23T02:50:21;4.60;;;3.60;;
56307;SDS011;42217;50.422;7.210;2024-03-23T02:52:47;7.03;;;4.73;;
56307;SDS011;42217;50.422;7.210;2024-03-23T02:55:13;8.27;;;4.17;;
56307;SDS011;42217;50.422;7.210;2024-03-23T02:57:39;10.63;;;4.97;;
56307;SDS011;42217;50.422;7.210;2024-03-23T03:00:05;5.53;;;4.37;;
56307;SDS011;42217;50.422;7.210;2024-03-23T03:02:32;9.57;;;4.17;;
56307;SDS011;42217;50.422;7.210;2024-03-23T03:04:58;5.43;;;3.37;;
56307;SDS011;42217;50.422;7.210;2024-03-23T03:07:24;5.53;;;4.03;;
56307;SDS011;42217;50.422;7.210;2024-03-23T03:09:50;4.50;;;3.60;;
56307;SDS011;42217;50.422;7.210;2024-03-23T03:12:16;4.77;;;2.70;;
56307;SDS011;42217;50.422;7.210;2024-03-23T03:14:41;7.83;;;2.30;;
56307;SDS011;42217;50.422;7.210;2024-03-23T03:17:07;4.03;;;2.77;;
56307;SDS011;42217;50.422;7.210;2024-03-23T03:19:33;2.50;;;2.20;;
56307;SDS011;42217;50.422;7.210;2024-03-23T03:21:59;3.40;;;2.80;;
56307;SDS011;42217;50.422;7.210;2024-03-23T03:24:25;4.67;;;3.50;;
56307;SDS011;42217;50.422;7.210;2024-03-23T03:26:50;5.60;;;2.67;;
56307;SDS011;42217;50.422;7.210;2024-03-23T03:29:16;3.43;;;2.67;;
56307;SDS011;42217;50.422;7.210;2024-03-23T03:31:45;8.80;;;2.17;;
56307;SDS011;42217;50.422;7.210;2024-03-23T03:34:11;2.13;;;1.93;;
56307;SDS011;42217;50.422;7.210;2024-03-23T03:36:36;5.13;;;2.07;;
56307;SDS011;42217;50.422;7.210;2024-03-23T03:39:02;2.97;;;2.20;;
56307;SDS011;42217;50.422;7.210;2024-03-23T03:41:29;3.70;;;2.20;;
56307;SDS011;42217;50.422;7.210;2024-03-23T03:43:54;2.20;;;2.00;;
56307;SDS011;42217;50.422;7.210;2024-03-23T03:46:20;6.67;;;3.00;;
56307;SDS011;42217;50.422;7.210;2024-03-23T03:48:46;2.90;;;2.07;;
56307;SDS011;42217;50.422;7.210;2024-03-23T03:51:13;2.97;;;2.73;;
56307;SDS011;42217;50.422;7.210;2024-03-23T03:53:39;5.03;;;2.17;;
56307;SDS011;42217;50.422;7.210;2024-03-23T03:56:05;2.60;;;2.27;;
56307;SDS011;42217;50.422;7.210;2024-03-23T03:58:30;4.67;;;2.57;;
56307;SDS011;42217;50.422;7.210;2024-03-23T04:00:56;5.90;;;2.57;;
56307;SDS011;42217;50.422;7.210;2024-03-23T04:03:22;2.53;;;2.33;;
56307;SDS011;42217;50.422;7.210;2024-03-23T04:05:53;2.60;;;2.40;;
56307;SDS011;42217;50.422;7.210;2024-03-23T04:08:20;4.57;;;3.00;;
56307;SDS011;42217;50.422;7.210;2024-03-23T04:10:46;2.77;;;2.57;;
56307;SDS011;42217;50.422;7.210;2024-03-23T04:13:12;3.80;;;2.73;;
56307;SDS011;42217;50.422;7.210;2024-03-23T04:15:38;4.30;;;2.67;;
56307;SDS011;42217;50.422;7.210;2024-03-23T04:18:04;4.33;;;2.70;;
56307;SDS011;42217;50.422;7.210;2024-03-23T04:20:30;6.80;;;3.60;;
56307;SDS011;42217;50.422;7.210;2024-03-23T04:22:57;5.83;;;2.90;;
56307;SDS011;42217;50.422;7.210;2024-03-23T04:25:23;3.10;;;2.90;;
56307;SDS011;42217;50.422;7.210;2024-03-23T04:27:49;4.50;;;3.20;;
56307;SDS011;42217;50.422;7.210;2024-03-23T04:30:14;4.50;;;3.07;;
56307;SDS011;42217;50.422;7.210;2024-03-23T04:32:41;5.10;;;3.13;;
56307;SDS011;42217;50.422;7.210;2024-03-23T04:35:07;5.03;;;3.03;;
56307;SDS011;42217;50.422;7.210;2024-03-23T04:37:36;3.57;;;3.03;;
56307;SDS011;42217;50.422;7.210;2024-03-23T04:40:02;3.87;;;3.57;;
56307;SDS011;42217;50.422;7.210;2024-03-23T04:42:28;3.70;;;3.33;;
56307;SDS011;42217;50.422;7.210;2024-03-23T04:44:55;6.10;;;3.67;;
56307;SDS011;42217;50.422;7.210;2024-03-23T04:47:21;4.03;;;3.60;;
56307;SDS011;42217;50.422;7.210;2024-03-23T04:49:46;4.67;;;3.33;;
56307;SDS011;42217;50.422;7.210;2024-03-23T04:52:13;4.47;;;4.00;;
56307;SDS011;42217;50.422;7.210;2024-03-23T04:54:40;4.33;;;3.80;;
56307;SDS011;42217;50.422;7.210;2024-03-23T04:57:06;11.67;;;4.20;;
56307;SDS011;42217;50.422;7.210;2024-03-23T04:59:32;10.00;;;5.83;;
56307;SDS011;42217;50.422;7.210;2024-03-23T05:01:58;11.63;;;5.27;;
56307;SDS011;42217;50.422;7.210;2024-03-23T05:04:24;13.77;;;5.00;;
56307;SDS011;42217;50.422;7.210;2024-03-23T05:06:50;6.73;;;5.20;;
56307;SDS011;42217;50.422;7.210;2024-03-23T05:09:16;13.87;;;5.70;;
56307;SDS011;42217;50.422;7.210;2024-03-23T05:11:42;11.20;;;5.90;;
56307;SDS011;42217;50.422;7.210;2024-03-23T05:14:07;10.17;;;5.03;;
56307;SDS011;42217;50.422;7.210;2024-03-23T05:16:33;11.63;;;5.80;;
56307;SDS011;42217;50.422;7.210;2024-03-23T05:18:59;15.17;;;6.30;;
56307;SDS011;42217;50.422;7.210;2024-03-23T05:21:25;11.63;;;6.53;;
56307;SDS011;42217;50.422;7.210;2024-03-23T05:23:53;19.43;;;6.97;;
56307;SDS011;42217;50.422;7.210;2024-03-23T05:26:19;15.97;;;7.00;;
56307;SDS011;42217;50.422;7.210;2024-03-23T05:28:45;18.90;;;7.30;;
56307;SDS011;42217;50.422;7.210;2024-03-23T05:31:11;10.87;;;6.03;;
56307;SDS011;42217;50.422;7.210;2024-03-23T05:33:36;17.63;;;6.63;;
56307;SDS011;42217;50.422;7.210;2024-03-23T05:36:05;20.40;;;7.27;;
56307;SDS011;42217;50.422;7.210;2024-03-23T05:38:31;16.20;;;6.30;;
56307;SDS011;42217;50.422;7.210;2024-03-23T05:40:57;9.90;;;6.10;;
56307;SDS011;42217;50.422;7.210;2024-03-23T05:43:25;14.70;;;7.33;;
56307;SDS011;42217;50.422;7.210;2024-03-23T05:45:54;15.60;;;7.17;;
56307;SDS011;42217;50.422;7.210;2024-03-23T05:48:21;15.63;;;6.50;;
56307;SDS011;42217;50.422;7.210;2024-03-23T05:50:47;16.83;;;6.60;;
56307;SDS011;42217;50.422;7.210;2024-03-23T05:53:14;13.10;;;7.13;;
56307;SDS011;42217;50.422;7.210;2024-03-23T05:55:43;14.53;;;5.67;;
56307;SDS011;42217;50.422;7.210;2024-03-23T05:58:09;21.40;;;7.20;;
56307;SDS011;42217;50.422;7.210;2024-03-23T06:00:35;12.50;;;5.03;;
56307;SDS011;42217;50.422;7.210;2024-03-23T06:03:01;18.17;;;4.77;;
56307;SDS011;42217;50.422;7.210;2024-03-23T06:05:27;11.47;;;5.57;;
56307;SDS011;42217;50.422;7.210;2024-03-23T06:07:52;12.63;;;4.27;;
56307;SDS011;42217;50.422;7.210;2024-03-23T06:10:18;13.87;;;5.17;;
56307;SDS011;42217;50.422;7.210;2024-03-23T06:12:45;17.13;;;4.57;;
56307;SDS011;42217;50.422;7.210;2024-03-23T06:15:11;21.27;;;7.43;;
56307;SDS011;42217;50.422;7.210;2024-03-23T06:17:37;15.17;;;6.47;;
56307;SDS011;42217;50.422;7.210;2024-03-23T06:20:04;30.80;;;13.47;;
56307;SDS011;42217;50.422;7.210;2024-03-23T06:22:31;15.70;;;7.10;;
56307;SDS011;42217;50.422;7.210;2024-03-23T06:24:57;13.67;;;5.47;;
56307;SDS011;42217;50.422;7.210;2024-03-23T06:27:23;15.77;;;4.43;;
56307;SDS011;42217;50.422;7.210;2024-03-23T06:29:48;16.70;;;4.30;;
56307;SDS011;42217;50.422;7.210;2024-03-23T06:32:14;43.97;;;18.77;;
56307;SDS011;42217;50.422;7.210;2024-03-23T06:34:43;15.17;;;8.63;;
56307;SDS011;42217;50.422;7.210;2024-03-23T06:37:09;23.90;;;7.77;;
56307;SDS011;42217;50.422;7.210;2024-03-23T06:39:36;13.67;;;6.50;;
56307;SDS011;42217;50.422;7.210;2024-03-23T06:42:02;10.27;;;4.27;;
56307;SDS011;42217;50.422;7.210;2024-03-23T06:44:28;14.13;;;3.63;;
56307;SDS011;42217;50.422;7.210;2024-03-23T06:46:54;20.27;;;5.60;;
56307;SDS011;42217;50.422;7.210;2024-03-23T06:49:20;11.57;;;4.13;;
56307;SDS011;42217;50.422;7.210;2024-03-23T06:51:45;27.37;;;10.90;;
56307;SDS011;42217;50.422;7.210;2024-03-23T06:54:11;13.53;;;8.73;;
56307;SDS011;42217;50.422;7.210;2024-03-23T06:56:37;12.60;;;5.47;;
56307;SDS011;42217;50.422;7.210;2024-03-23T06:59:03;17.60;;;6.40;;
56307;SDS011;42217;50.422;7.210;2024-03-23T07:01:28;23.27;;;6.10;;
56307;SDS011;42217;50.422;7.210;2024-03-23T07:03:54;13.70;;;5.87;;
56307;SDS011;42217;50.422;7.210;2024-03-23T07:06:20;18.77;;;5.93;;
56307;SDS011;42217;50.422;7.210;2024-03-23T07:08:46;17.80;;;6.80;;
56307;SDS011;42217;50.422;7.210;2024-03-23T07:11:12;21.20;;;6.07;;
56307;SDS011;42217;50.422;7.210;2024-03-23T07:13:43;14.07;;;5.40;;
56307;SDS011;42217;50.422;7.210;2024-03-23T07:16:08;9.87;;;5.53;;
56307;SDS011;42217;50.422;7.210;2024-03-23T07:18:34;16.53;;;5.50;;
56307;SDS011;42217;50.422;7.210;2024-03-23T07:21:00;13.80;;;5.43;;
56307;SDS011;42217;50.422;7.210;2024-03-23T07:23:25;12.87;;;6.10;;
56307;SDS011;42217;50.422;7.210;2024-03-23T07:25:57;16.00;;;7.07;;
56307;SDS011;42217;50.422;7.210;2024-03-23T07:28:24;15.40;;;5.67;;
56307;SDS011;42217;50.422;7.210;2024-03-23T07:31:02;22.90;;;5.10;;
56307;SDS011;42217;50.422;7.210;2024-03-23T07:33:29;9.13;;;4.27;;
56307;SDS011;42217;50.422;7.210;2024-03-23T07:35:55;15.17;;;5.13;;
56307;SDS011;42217;50.422;7.210;2024-03-23T07:38:20;8.43;;;4.37;;
56307;SDS011;42217;50.422;7.210;2024-03-23T07:40:46;18.00;;;5.43;;
56307;SDS011;42217;50.422;7.210;2024-03-23T07:43:14;9.37;;;3.90;;
56307;SDS011;42217;50.422;7.210;2024-03-23T07:45:40;14.17;;;4.93;;
56307;SDS011;42217;50.422;7.210;2024-03-23T07:48:06;10.57;;;4.57;;
56307;SDS011;42217;50.422;7.210;2024-03-23T07:50:32;8.80;;;4.33;;
56307;SDS011;42217;50.422;7.210;2024-03-23T07:52:57;7.63;;;4.00;;
56307;SDS011;42217;50.422;7.210;2024-03-23T07:55:23;15.37;;;4.83;;
56307;SDS011;42217;50.422;7.210;2024-03-23T07:57:50;14.57;;;4.17;;
56307;SDS011;42217;50.422;7.210;2024-03-23T08:00:16;15.37;;;5.57;;
56307;SDS011;42217;50.422;7.210;2024-03-23T08:02:42;11.60;;;7.00;;
56307;SDS011;42217;50.422;7.210;2024-03-23T08:05:08;13.60;;;4.70;;
56307;SDS011;42217;50.422;7.210;2024-03-23T08:07:34;11.87;;;5.10;;
56307;SDS011;42217;50.422;7.210;2024-03-23T08:10:00;17.03;;;4.53;;
56307;SDS011;42217;50.422;7.210;2024-03-23T08:12:28;8.90;;;4.10;;
56307;SDS011;42217;50.422;7.210;2024-03-23T08:14:54;7.50;;;4.47;;
56307;SDS011;42217;50.422;7.210;2024-03-23T08:17:19;12.40;;;4.70;;
56307;SDS011;42217;50.422;7.210;2024-03-23T08:19:45;15.90;;;7.07;;
56307;SDS011;42217;50.422;7.210;2024-03-23T08:22:11;16.57;;;5.23;;
56307;SDS011;42217;50.422;7.210;2024-03-23T08:24:36;19.67;;;4.10;;
56307;SDS011;42217;50.422;7.210;2024-03-23T08:27:02;12.07;;;4.90;;
56307;SDS011;42217;50.422;7.210;2024-03-23T08:29:29;11.30;;;4.03;;
56307;SDS011;42217;50.422;7.210;2024-03-23T08:31:55;17.23;;;4.87;;
56307;SDS011;42217;50.422;7.210;2024-03-23T08:34:21;8.87;;;4.20;;
56307;SDS011;42217;50.422;7.210;2024-03-23T08:36:47;12.23;;;4.93;;
56307;SDS011;42217;50.422;7.210;2024-03-23T08:39:12;9.43;;;4.37;;
56307;SDS011;42217;50.422;7.210;2024-03-23T08:41:39;8.77;;;3.23;;
56307;SDS011;42217;50.422;7.210;2024-03-23T08:44:04;17.20;;;4.93;;
56307;SDS011;42217;50.422;7.210;2024-03-23T08:46:30;9.27;;;4.23;;
56307;SDS011;42217;50.422;7.210;2024-03-23T08:48:56;10.67;;;4.43;;
56307;SDS011;42217;50.422;7.210;2024-03-23T08:51:21;15.17;;;4.30;;
56307;SDS011;42217;50.422;7.210;2024-03-23T08:53:47;12.70;;;3.07;;
56307;SDS011;42217;50.422;7.210;2024-03-23T08:56:13;13.77;;;4.07;;
56307;SDS011;42217;50.422;7.210;2024-03-23T08:58:38;14.07;;;4.20;;
56307;SDS011;42217;50.422;7.210;2024-03-23T09:01:06;16.03;;;3.97;;
56307;SDS011;42217;50.422;7.210;2024-03-23T09:03:33;14.33;;;4.40;;
56307;SDS011;42217;50.422;7.210;2024-03-23T09:06:00;12.90;;;4.10;;
56307;SDS011;42217;50.422;7.210;2024-03-23T09:08:26;9.80;;;3.67;;
56307;SDS011;42217;50.422;7.210;2024-03-23T09:10:52;9.97;;;3.60;;
56307;SDS011;42217;50.422;7.210;2024-03-23T09:13:18;13.33;;;4.20;;
56307;SDS011;42217;50.422;7.210;2024-03-23T09:15:48;13.97;;;3.37;;
56307;SDS011;42217;50.422;7.210;2024-03-23T09:18:15;10.23;;;3.57;;
56307;SDS011;42217;50.422;7.210;2024-03-23T09:20:41;11.30;;;3.37;;
56307;SDS011;42217;50.422;7.210;2024-03-23T09:23:07;17.20;;;4.67;;
56307;SDS011;42217;50.422;7.210;2024-03-23T09:25:35;6.70;;;3.20;;
56307;SDS011;42217;50.422;7.210;2024-03-23T09:28:02;11.27;;;3.77;;
56307;SDS011;42217;50.422;7.210;2024-03-23T09:30:28;10.77;;;4.00;;
56307;SDS011;42217;50.422;7.210;2024-03-23T09:32:53;9.57;;;3.73;;
56307;SDS011;42217;50.422;7.210;2024-03-23T09:35:19;8.93;;;4.67;;
56307;SDS011;42217;50.422;7.210;2024-03-23T09:37:45;11.23;;;3.87;;
56307;SDS011;42217;50.422;7.210;2024-03-23T09:40:11;10.23;;;3.73;;
56307;SDS011;42217;50.422;7.210;2024-03-23T09:42:37;12.97;;;5.43;;
56307;SDS011;42217;50.422;7.210;2024-03-23T09:45:04;6.03;;;3.00;;
56307;SDS011;42217;50.422;7.210;2024-03-23T09:47:34;10.20;;;3.40;;
56307;SDS011;42217;50.422;7.210;2024-03-23T09:50:00;11.77;;;2.97;;
56307;SDS011;42217;50.422;7.210;2024-03-23T09:52:26;9.60;;;3.20;;
56307;SDS011;42217;50.422;7.210;2024-03-23T09:54:52;13.77;;;3.43;;
56307;SDS011;42217;50.422;7.210;2024-03-23T09:57:18;10.03;;;4.17;;
56307;SDS011;42217;50.422;7.210;2024-03-23T09:59:43;9.97;;;2.80;;
56307;SDS011;42217;50.422;7.210;2024-03-23T10:02:09;8.27;;;2.60;;
56307;SDS011;42217;50.422;7.210;2024-03-23T10:04:41;13.60;;;3.63;;
56307;SDS011;42217;50.422;7.210;2024-03-23T10:07:19;10.37;;;3.33;;
56307;SDS011;42217;50.422;7.210;2024-03-23T10:09:46;12.90;;;2.93;;
56307;SDS011;42217;50.422;7.210;2024-03-23T10:12:14;10.37;;;2.97;;
56307;SDS011;42217;50.422;7.210;2024-03-23T10:14:41;8.23;;;2.67;;
56307;SDS011;42217;50.422;7.210;2024-03-23T10:17:12;9.13;;;3.67;;
56307;SDS011;42217;50.422;7.210;2024-03-23T10:19:48;9.60;;;3.70;;
56307;SDS011;42217;50.422;7.210;2024-03-23T10:22:17;12.17;;;3.90;;
56307;SDS011;42217;50.422;7.210;2024-03-23T10:24:46;10.33;;;3.93;;
56307;SDS011;42217;50.422;7.210;2024-03-23T10:27:15;5.00;;;2.00;;
56307;SDS011;42217;50.422;7.210;2024-03-23T10:29:42;3.47;;;2.20;;
56307;SDS011;42217;50.422;7.210;2024-03-23T10:32:09;3.20;;;2.57;;
56307;SDS011;42217;50.422;7.210;2024-03-23T10:34:36;4.80;;;2.20;;
56307;SDS011;42217;50.422;7.210;2024-03-23T10:37:03;4.37;;;2.17;;
56307;SDS011;42217;50.422;7.210;2024-03-23T10:39:33;3.60;;;2.00;;
56307;SDS011;42217;50.422;7.210;2024-03-23T10:42:04;8.63;;;3.23;;
56307;SDS011;42217;50.422;7.210;2024-03-23T10:44:34;9.60;;;2.43;;
56307;SDS011;42217;50.422;7.210;2024-03-23T10:47:03;6.37;;;2.33;;
56307;SDS011;42217;50.422;7.210;2024-03-23T10:49:30;7.20;;;2.50;;
56307;SDS011;42217;50.422;7.210;2024-03-23T10:51:57;8.13;;;2.17;;
56307;SDS011;42217;50.422;7.210;2024-03-23T10:54:27;5.67;;;1.70;;
56307;SDS011;42217;50.422;7.210;2024-03-23T10:57:01;4.20;;;2.07;;
56307;SDS011;42217;50.422;7.210;2024-03-23T10:59:31;3.93;;;2.50;;
56307;SDS011;42217;50.422;7.210;2024-03-23T11:01:59;4.27;;;2.33;;
56307;SDS011;42217;50.422;7.210;2024-03-23T11:04:34;3.73;;;1.70;;
56307;SDS011;42217;50.422;7.210;2024-03-23T11:09:51;2.27;;;1.63;;
56307;SDS011;42217;50.422;7.210;2024-03-23T11:14:50;2.47;;;1.47;;
56307;SDS011;42217;50.422;7.210;2024-03-23T11:17:20;1.37;;;1.33;;
56307;SDS011;42217;50.422;7.210;2024-03-23T11:19:53;1.17;;;1.17;;
56307;SDS011;42217;50.422;7.210;2024-03-23T11:25:18;2.07;;;1.27;;
56307;SDS011;42217;50.422;7.210;2024-03-23T11:27:48;1.55;;;1.45;;
56307;SDS011;42217;50.422;7.210;2024-03-23T11:30:23;1.63;;;1.53;;
56307;SDS011;42217;50.422;7.210;2024-03-23T11:38:08;2.03;;;1.80;;
56307;SDS011;42217;50.422;7.210;2024-03-23T11:40:39;1.53;;;1.30;;
56307;SDS011;42217;50.422;7.210;2024-03-23T11:43:10;2.87;;;1.50;;
56307;SDS011;42217;50.422;7.210;2024-03-23T11:45:43;1.57;;;1.47;;
56307;SDS011;42217;50.422;7.210;2024-03-23T11:48:13;2.40;;;1.63;;
56307;SDS011;42217;50.422;7.210;2024-03-23T11:50:49;4.67;;;2.10;;
56307;SDS011;42217;50.422;7.210;2024-03-23T11:53:20;2.03;;;1.83;;
56307;SDS011;42217;50.422;7.210;2024-03-23T11:58:24;1.03;;;1.03;;
56307;SDS011;42217;50.422;7.210;2024-03-23T12:00:51;1.80;;;1.63;;
56307;SDS011;42217;50.422;7.210;2024-03-23T12:03:20;2.37;;;1.50;;
56307;SDS011;42217;50.422;7.210;2024-03-23T12:05:50;5.63;;;1.30;;
56307;SDS011;42217;50.422;7.210;2024-03-23T12:10:50;2.33;;;1.63;;
56307;SDS011;42217;50.422;7.210;2024-03-23T12:13:16;3.40;;;1.60;;
56307;SDS011;42217;50.422;7.210;2024-03-23T12:15:43;4.63;;;1.80;;
56307;SDS011;42217;50.422;7.210;2024-03-23T12:18:10;4.80;;;1.53;;
56307;SDS011;42217;50.422;7.210;2024-03-23T12:20:36;3.73;;;2.30;;
56307;SDS011;42217;50.422;7.210;2024-03-23T12:23:06;2.03;;;1.47;;
56307;SDS011;42217;50.422;7.210;2024-03-23T12:25:41;3.07;;;1.63;;
56307;SDS011;42217;50.422;7.210;2024-03-23T12:28:07;3.73;;;1.63;;
56307;SDS011;42217;50.422;7.210;2024-03-23T12:30:36;2.60;;;1.53;;
56307;SDS011;42217;50.422;7.210;2024-03-23T12:33:04;2.70;;;1.60;;
56307;SDS011;42217;50.422;7.210;2024-03-23T12:35:31;4.23;;;2.20;;
56307;SDS011;42217;50.422;7.210;2024-03-23T12:37:57;7.67;;;1.67;;
56307;SDS011;42217;50.422;7.210;2024-03-23T12:40:22;2.50;;;1.53;;
56307;SDS011;42217;50.422;7.210;2024-03-23T12:42:48;3.50;;;1.80;;
56307;SDS011;42217;50.422;7.210;2024-03-23T12:45:14;8.80;;;1.70;;
56307;SDS011;42217;50.422;7.210;2024-03-23T12:47:40;2.13;;;1.67;;
56307;SDS011;42217;50.422;7.210;2024-03-23T12:50:05;2.33;;;1.40;;
56307;SDS011;42217;50.422;7.210;2024-03-23T12:52:32;2.47;;;1.50;;
56307;SDS011;42217;50.422;7.210;2024-03-23T12:54:58;4.33;;;1.33;;
56307;SDS011;42217;50.422;7.210;2024-03-23T12:57:24;8.30;;;2.50;;
56307;SDS011;42217;50.422;7.210;2024-03-23T12:59:51;1.27;;;1.07;;
56307;SDS011;42217;50.422;7.210;2024-03-23T13:02:18;4.83;;;1.70;;
56307;SDS011;42217;50.422;7.210;2024-03-23T13:04:50;7.27;;;1.30;;
56307;SDS011;42217;50.422;7.210;2024-03-23T13:07:17;2.33;;;1.13;;
56307;SDS011;42217;50.422;7.210;2024-03-23T13:09:44;3.90;;;1.27;;
56307;SDS011;42217;50.422;7.210;2024-03-23T13:12:09;3.07;;;1.40;;
56307;SDS011;42217;50.422;7.210;2024-03-23T13:14:37;3.90;;;2.20;;
56307;SDS011;42217;50.422;7.210;2024-03-23T13:17:03;7.57;;;1.40;;
56307;SDS011;42217;50.422;7.210;2024-03-23T13:19:29;5.40;;;1.37;;
56307;SDS011;42217;50.422;7.210;2024-03-23T13:21:59;4.03;;;2.13;;
56307;SDS011;42217;50.422;7.210;2024-03-23T13:24:25;2.63;;;1.60;;
56307;SDS011;42217;50.422;7.210;2024-03-23T13:26:52;5.63;;;1.80;;
56307;SDS011;42217;50.422;7.210;2024-03-23T13:29:19;4.17;;;1.40;;
56307;SDS011;42217;50.422;7.210;2024-03-23T13:31:46;2.20;;;1.30;;
56307;SDS011;42217;50.422;7.210;2024-03-23T13:34:12;3.70;;;1.17;;
56307;SDS011;42217;50.422;7.210;2024-03-23T13:36:40;4.20;;;1.40;;
56307;SDS011;42217;50.422;7.210;2024-03-23T13:39:06;2.13;;;1.43;;
56307;SDS011;42217;50.422;7.210;2024-03-23T13:41:42;3.43;;;1.27;;
56307;SDS011;42217;50.422;7.210;2024-03-23T13:44:10;2.60;;;1.20;;
56307;SDS011;42217;50.422;7.210;2024-03-23T13:46:37;3.80;;;1.93;;
56307;SDS011;42217;50.422;7.210;2024-03-23T13:49:08;1.03;;;0.93;;
56307;SDS011;42217;50.422;7.210;2024-03-23T13:51:57;1.73;;;1.53;;
56307;SDS011;42217;50.422;7.210;2024-03-23T13:54:23;5.67;;;1.60;;
56307;SDS011;42217;50.422;7.210;2024-03-23T13:56:50;5.30;;;1.10;;
56307;SDS011;42217;50.422;7.210;2024-03-23T13:59:16;4.37;;;1.10;;
56307;SDS011;42217;50.422;7.210;2024-03-23T14:01:42;1.47;;;1.23;;
56307;SDS011;42217;50.422;7.210;2024-03-23T14:04:08;3.77;;;1.40;;
56307;SDS011;42217;50.422;7.210;2024-03-23T14:06:34;4.37;;;1.23;;
56307;SDS011;42217;50.422;7.210;2024-03-23T14:09:00;3.07;;;1.43;;
56307;SDS011;42217;50.422;7.210;2024-03-23T14:11:26;2.73;;;1.00;;
56307;SDS011;42217;50.422;7.210;2024-03-23T14:13:53;3.40;;;1.10;;
56307;SDS011;42217;50.422;7.210;2024-03-23T14:16:19;6.70;;;2.67;;
56307;SDS011;42217;50.422;7.210;2024-03-23T14:18:48;3.40;;;1.17;;
56307;SDS011;42217;50.422;7.210;2024-03-23T14:21:14;1.30;;;0.83;;
56307;SDS011;42217;50.422;7.210;2024-03-23T14:23:39;5.23;;;1.13;;
56307;SDS011;42217;50.422;7.210;2024-03-23T14:26:08;5.03;;;1.47;;
56307;SDS011;42217;50.422;7.210;2024-03-23T14:28:33;2.77;;;1.23;;
56307;SDS011;42217;50.422;7.210;2024-03-23T14:31:00;2.27;;;1.60;;
56307;SDS011;42217;50.422;7.210;2024-03-23T14:33:26;4.50;;;1.80;;
56307;SDS011;42217;50.422;7.210;2024-03-23T14:35:55;2.60;;;1.30;;
56307;SDS011;42217;50.422;7.210;2024-03-23T14:38:22;2.43;;;1.47;;
56307;SDS011;42217;50.422;7.210;2024-03-23T14:40:48;1.27;;;1.17;;
56307;SDS011;42217;50.422;7.210;2024-03-23T14:43:14;1.40;;;1.30;;
56307;SDS011;42217;50.422;7.210;2024-03-23T14:48:41;2.03;;;1.20;;
56307;SDS011;42217;50.422;7.210;2024-03-23T14:51:08;2.37;;;1.40;;
56307;SDS011;42217;50.422;7.210;2024-03-23T14:53:34;1.07;;;0.80;;
56307;SDS011;42217;50.422;7.210;2024-03-23T14:56:02;2.03;;;0.70;;
56307;SDS011;42217;50.422;7.210;2024-03-23T14:58:29;0.90;;;0.70;;
56307;SDS011;42217;50.422;7.210;2024-03-23T15:01:00;1.70;;;1.13;;
56307;SDS011;42217;50.422;7.210;2024-03-23T15:03:29;2.47;;;0.80;;
56307;SDS011;42217;50.422;7.210;2024-03-23T15:05:55;2.40;;;1.10;;
56307;SDS011;42217;50.422;7.210;2024-03-23T15:08:22;0.87;;;0.87;;
56307;SDS011;42217;50.422;7.210;2024-03-23T15:10:48;2.10;;;1.13;;
56307;SDS011;42217;50.422;7.210;2024-03-23T15:13:14;1.63;;;1.13;;
56307;SDS011;42217;50.422;7.210;2024-03-23T15:15:40;1.23;;;0.90;;
56307;SDS011;42217;50.422;7.210;2024-03-23T15:18:09;1.83;;;1.23;;
56307;SDS011;42217;50.422;7.210;2024-03-23T15:20:38;4.03;;;1.87;;
56307;SDS011;42217;50.422;7.210;2024-03-23T15:23:04;1.13;;;0.67;;
56307;SDS011;42217;50.422;7.210;2024-03-23T15:25:30;4.87;;;1.47;;
56307;SDS011;42217;50.422;7.210;2024-03-23T15:27:57;2.73;;;1.10;;
56307;SDS011;42217;50.422;7.210;2024-03-23T15:30:24;3.37;;;1.37;;
56307;SDS011;42217;50.422;7.210;2024-03-23T15:32:49;1.73;;;1.10;;
56307;SDS011;42217;50.422;7.210;2024-03-23T15:35:15;3.30;;;1.17;;
56307;SDS011;42217;50.422;7.210;2024-03-23T15:37:41;2.47;;;1.50;;
56307;SDS011;42217;50.422;7.210;2024-03-23T15:40:07;1.10;;;1.00;;
56307;SDS011;42217;50.422;7.210;2024-03-23T15:42:35;1.77;;;1.50;;
56307;SDS011;42217;50.422;7.210;2024-03-23T15:45:00;2.47;;;1.13;;
56307;SDS011;42217;50.422;7.210;2024-03-23T15:47:28;1.63;;;1.50;;
56307;SDS011;42217;50.422;7.210;2024-03-23T15:49:54;2.17;;;2.07;;
56307;SDS011;42217;50.422;7.210;2024-03-23T15:52:20;1.60;;;1.50;;
56307;SDS011;42217;50.422;7.210;2024-03-23T15:54:46;1.87;;;1.50;;
56307;SDS011;42217;50.422;7.210;2024-03-23T15:57:12;1.40;;;1.37;;